createdAt,value
2023-03-26T00:03:20.299Z,95627.00
2023-03-26T00:07:24.597Z,95623.00
2023-03-26T00:11:31.538Z,95642.00
2023-03-26T00:15:38.970Z,95646.00
2023-03-26T00:19:43.264Z,95654.00
2023-03-26T00:23:53.843Z,95655.00
2023-03-26T00:27:59.578Z,95651.00
2023-03-26T00:32:04.272Z,95652.00
2023-03-26T00:36:11.226Z,95663.00
2023-03-26T00:40:14.712Z,95649.00
2023-03-26T00:44:17.762Z,95654.00
2023-03-26T00:48:34.295Z,95661.00
2023-03-26T00:52:49.203Z,95654.00
2023-03-26T00:56:56.073Z,95656.00
2023-03-26T01:01:03.028Z,95653.00
2023-03-26T01:05:42.702Z,95653.00
2023-03-26T01:09:52.597Z,95656.00
2023-03-26T01:13:59.952Z,95652.00
2023-03-26T01:18:04.969Z,95648.00
2023-03-26T01:22:14.997Z,95651.00
2023-03-26T01:26:34.418Z,95659.00
2023-03-26T01:30:43.520Z,95649.00
2023-03-26T01:35:00.163Z,95656.00
2023-03-26T01:39:10.858Z,95661.00
2023-03-26T01:43:25.695Z,95658.00
2023-03-26T01:47:31.222Z,95658.00
2023-03-26T01:51:36.340Z,95662.00
2023-03-26T01:55:49.791Z,95650.00
2023-03-26T02:00:11.624Z,95650.00
2023-03-26T02:04:25.301Z,95650.00
2023-03-26T02:08:37.453Z,95644.00
2023-03-26T02:12:45.050Z,95645.00
2023-03-26T02:16:55.527Z,95637.00
2023-03-26T02:21:02.519Z,95628.00
2023-03-26T02:25:06.387Z,95630.00
2023-03-26T02:29:09.957Z,95631.00
2023-03-26T02:33:15.410Z,95627.00
2023-03-26T02:37:21.519Z,95634.00
2023-03-26T02:41:29.657Z,95623.00
2023-03-26T02:45:32.688Z,95626.00
2023-03-26T02:49:37.469Z,95609.00
2023-03-26T02:53:41.434Z,95607.00
2023-03-26T02:57:47.074Z,95608.00
2023-03-26T03:01:50.083Z,95604.00
2023-03-26T03:05:55.844Z,95607.00
2023-03-26T03:10:02.500Z,95599.00
2023-03-26T03:14:08.462Z,95599.00
2023-03-26T03:18:11.591Z,95599.00
2023-03-26T03:22:16.201Z,95603.00
2023-03-26T03:26:24.328Z,95598.00
2023-03-26T03:30:27.742Z,95599.00
2023-03-26T03:34:33.132Z,95596.00
2023-03-26T03:38:39.576Z,95571.00
2023-03-26T03:42:45.511Z,95568.00
2023-03-26T03:46:54.067Z,95565.00
2023-03-26T03:51:01.249Z,95571.00
2023-03-26T03:55:08.280Z,95569.00
2023-03-26T03:59:11.344Z,95574.00
2023-03-26T04:03:14.536Z,95569.00
2023-03-26T04:07:20.574Z,95569.00
2023-03-26T04:11:25.424Z,95559.00
2023-03-26T04:15:28.519Z,95555.00
2023-03-26T04:19:31.571Z,95550.00
2023-03-26T04:23:36.717Z,95544.00
2023-03-26T04:27:43.474Z,95555.00
2023-03-26T04:31:50.460Z,95536.00
2023-03-26T04:35:54.603Z,95540.00
2023-03-26T04:40:03.431Z,95543.00
2023-03-26T04:44:08.002Z,95550.00
2023-03-26T04:48:24.658Z,95551.00
2023-03-26T04:52:27.699Z,95549.00
2023-03-26T04:56:48.325Z,95543.00
2023-03-26T05:00:53.064Z,95542.00
2023-03-26T05:04:58.338Z,95538.00
2023-03-26T05:09:04.190Z,95534.00
2023-03-26T05:13:07.251Z,95537.00
2023-03-26T05:17:18.948Z,95538.00
2023-03-26T05:21:22.483Z,95520.00
2023-03-26T05:25:25.733Z,95522.00
2023-03-26T05:29:29.014Z,95519.00
2023-03-26T05:33:37.290Z,95509.00
2023-03-26T05:37:40.353Z,95507.00
2023-03-26T05:41:45.216Z,95500.00
2023-03-26T05:45:51.915Z,95507.00
2023-03-26T05:49:59.282Z,95497.00
2023-03-26T05:54:04.950Z,95500.00
2023-03-26T05:58:07.926Z,95487.00
2023-03-26T06:02:12.238Z,95475.00
2023-03-26T06:06:21.586Z,95464.00
2023-03-26T06:10:24.717Z,95467.00
2023-03-26T06:14:27.883Z,95467.00
2023-03-26T06:18:32.291Z,95472.00
2023-03-26T06:22:36.722Z,95470.00
2023-03-26T06:26:39.798Z,95463.00
2023-03-26T06:30:44.934Z,95443.00
2023-03-26T06:34:50.693Z,95441.00
2023-03-26T06:38:59.322Z,95438.00
2023-03-26T06:43:08.576Z,95439.00
2023-03-26T06:47:15.049Z,95438.00
2023-03-26T06:51:20.388Z,95437.00
2023-03-26T06:55:25.524Z,95437.00
2023-03-26T06:59:28.564Z,95434.00
2023-03-26T07:03:31.980Z,95424.00
2023-03-26T07:07:35.045Z,95433.00
2023-03-26T07:11:53.816Z,95426.00
2023-03-26T07:16:02.105Z,95432.00
2023-03-26T07:20:05.747Z,95426.00
2023-03-26T07:24:12.530Z,95411.00
2023-03-26T07:28:25.880Z,95405.00
2023-03-26T07:32:36.248Z,95405.00
2023-03-26T07:36:48.561Z,95395.00
2023-03-26T07:41:01.431Z,95405.00
2023-03-26T07:45:20.683Z,95389.00
2023-03-26T07:49:27.352Z,95383.00
2023-03-26T07:53:30.937Z,95384.00
2023-03-26T07:57:47.953Z,95377.00
2023-03-26T08:02:25.426Z,95367.00
2023-03-26T08:06:33.884Z,95355.00
2023-03-26T08:10:45.612Z,95352.00
2023-03-26T08:14:54.610Z,95347.00
2023-03-26T08:19:08.778Z,95340.00
2023-03-26T08:23:19.163Z,95340.00
2023-03-26T08:27:27.741Z,95338.00
2023-03-26T08:31:39.053Z,95328.00
2023-03-26T08:35:45.331Z,95325.00
2023-03-26T08:39:53.630Z,95320.00
2023-03-26T08:44:31.916Z,95320.00
2023-03-26T08:49:08.940Z,95312.00
2023-03-26T08:53:57.231Z,95303.00
2023-03-26T08:58:29.887Z,95297.00
2023-03-26T09:03:10.667Z,95277.00
2023-03-26T09:07:57.486Z,95274.00
2023-03-26T09:12:32.399Z,95263.00
2023-03-26T09:17:13.377Z,95249.00
2023-03-26T09:21:48.412Z,95238.00
2023-03-26T09:26:28.105Z,95233.00
2023-03-26T09:30:59.344Z,95226.00
2023-03-26T09:35:16.464Z,95221.00
2023-03-26T09:39:37.087Z,95206.00
2023-03-26T09:44:16.357Z,95210.00
2023-03-26T09:48:50.634Z,95201.00
2023-03-26T09:53:05.802Z,95198.00
2023-03-26T09:57:22.865Z,95191.00
2023-03-26T10:01:35.158Z,95188.00
2023-03-26T10:05:53.170Z,95177.00
2023-03-26T10:10:04.431Z,95166.00
2023-03-26T10:14:20.053Z,95178.00
2023-03-26T10:18:34.224Z,95173.00
2023-03-26T10:22:52.811Z,95169.00
2023-03-26T10:27:25.153Z,95170.00
2023-03-26T10:31:42.172Z,95179.00
2023-03-26T10:36:01.193Z,95173.00
2023-03-26T10:40:17.886Z,95182.00
2023-03-26T10:44:43.666Z,95177.00
2023-03-26T10:49:03.146Z,95169.00
2023-03-26T10:53:11.312Z,95175.00
2023-03-26T10:57:33.021Z,95182.00
2023-03-26T11:01:43.526Z,95178.00
2023-03-26T11:05:52.305Z,95170.00
2023-03-26T11:10:03.403Z,95176.00
2023-03-26T11:14:27.899Z,95186.00
2023-03-26T11:18:53.552Z,95178.00
2023-03-26T11:23:08.459Z,95171.00
2023-03-26T11:27:19.964Z,95172.00
2023-03-26T11:31:35.661Z,95166.00
2023-03-26T11:35:43.996Z,95160.00
2023-03-26T11:39:55.907Z,95154.00
2023-03-26T11:44:04.077Z,95155.00
2023-03-26T11:48:11.941Z,95165.00
2023-03-26T11:52:16.899Z,95153.00
2023-03-26T11:56:28.786Z,95139.00
2023-03-26T12:00:34.632Z,95117.00
2023-03-26T12:04:40.845Z,95101.00
2023-03-26T12:08:51.228Z,95091.00
2023-03-26T12:13:02.131Z,95092.00
2023-03-26T12:17:09.705Z,95083.00
2023-03-26T12:21:17.976Z,95073.00
2023-03-26T12:25:24.714Z,95062.00
2023-03-26T12:29:34.719Z,95062.00
2023-03-26T12:33:39.296Z,95061.00
2023-03-26T12:37:44.779Z,95037.00
2023-03-26T12:44:45.139Z,95040.00
2023-03-26T12:47:54.943Z,95040.00
2023-03-26T12:51:15.832Z,95037.00
2023-03-26T12:55:35.441Z,95039.00
2023-03-26T13:00:09.331Z,95035.00
2023-03-26T13:04:26.573Z,95031.00
2023-03-26T13:09:05.030Z,95028.00
2023-03-26T13:13:32.656Z,95035.00
2023-03-26T13:17:44.872Z,95012.00
2023-03-26T13:22:00.129Z,94999.00
2023-03-26T13:26:15.681Z,94995.00
2023-03-26T13:30:37.512Z,94978.00
2023-03-26T13:34:57.015Z,94994.00
2023-03-26T13:39:11.095Z,94994.00
2023-03-26T13:43:27.691Z,94992.00
2023-03-26T13:47:35.293Z,94979.00
2023-03-26T13:51:52.877Z,94990.00
2023-03-26T13:55:58.763Z,94981.00
2023-03-26T14:00:07.626Z,94983.00
2023-03-26T14:04:19.425Z,94978.00
2023-03-26T14:08:32.931Z,94974.00
2023-03-26T14:12:49.681Z,94951.00
2023-03-26T14:17:00.970Z,94942.00
2023-03-26T14:21:40.624Z,94935.00
2023-03-26T14:26:02.924Z,94913.00
2023-03-26T14:30:36.564Z,94915.00
2023-03-26T14:34:54.366Z,94915.00
2023-03-26T14:39:21.923Z,94913.00
2023-03-26T14:44:15.600Z,94904.00
2023-03-26T14:48:49.340Z,94893.00
2023-03-26T14:53:01.212Z,94892.00
2023-03-26T14:57:55.076Z,94888.00
2023-03-26T15:02:28.881Z,94892.00
2023-03-26T15:07:05.388Z,94897.00
2023-03-26T15:11:36.159Z,94900.00
2023-03-26T15:16:09.291Z,94899.00
2023-03-26T15:20:57.623Z,94902.00
2023-03-26T15:25:54.460Z,94902.00
2023-03-26T15:30:31.368Z,94910.00
2023-03-26T15:35:11.837Z,94914.00
2023-03-26T15:39:59.434Z,94903.00
2023-03-26T15:44:24.232Z,94915.00
2023-03-26T15:48:45.404Z,94919.00
2023-03-26T15:52:56.782Z,94914.00
2023-03-26T15:57:21.706Z,94906.00
2023-03-26T16:01:37.351Z,94910.00
2023-03-26T16:05:54.352Z,94906.00
2023-03-26T16:10:14.298Z,94914.00
2023-03-26T16:14:23.978Z,94905.00
2023-03-26T16:18:38.142Z,94922.00
2023-03-26T16:22:58.175Z,94916.00
2023-03-26T16:27:10.180Z,94913.00
2023-03-26T16:31:37.845Z,94909.00
2023-03-26T16:36:02.042Z,94901.00
2023-03-26T16:40:33.581Z,94893.00
2023-03-26T16:44:46.133Z,94894.00
2023-03-26T16:48:56.610Z,94886.00
2023-03-26T16:53:06.584Z,94883.00
2023-03-26T16:57:27.195Z,94884.00
2023-03-26T17:01:43.212Z,94882.00
2023-03-26T17:06:03.605Z,94880.00
2023-03-26T17:10:14.859Z,94886.00
2023-03-26T17:14:34.438Z,94888.00
2023-03-26T17:18:51.683Z,94868.00
2023-03-26T17:23:05.354Z,94859.00
2023-03-26T17:27:24.989Z,94876.00
2023-03-26T17:31:53.073Z,94873.00
2023-03-26T17:36:22.177Z,94863.00
2023-03-26T17:40:32.524Z,94864.00
2023-03-26T17:44:44.587Z,94859.00
2023-03-26T17:48:58.248Z,94866.00
2023-03-26T17:53:09.118Z,94856.00
2023-03-26T17:57:17.164Z,94856.00
2023-03-26T18:01:24.967Z,94859.00
2023-03-26T18:05:32.416Z,94866.00
2023-03-26T18:09:49.366Z,94876.00
2023-03-26T18:14:34.351Z,94877.00
2023-03-26T18:18:43.857Z,94875.00
2023-03-26T18:22:53.488Z,94873.00
2023-03-26T18:27:00.166Z,94865.00
2023-03-26T18:31:17.143Z,94871.00
2023-03-26T18:35:23.343Z,94878.00
2023-03-26T18:39:30.463Z,94882.00
2023-03-26T18:43:44.554Z,94892.00
2023-03-26T18:47:54.603Z,94900.00
2023-03-26T18:52:02.183Z,94890.00
2023-03-26T18:56:22.091Z,94874.00
2023-03-26T19:00:30.421Z,94876.00
2023-03-26T19:04:35.035Z,94876.00
2023-03-26T19:08:40.252Z,94888.00
2023-03-26T19:12:47.730Z,94883.00
2023-03-26T19:16:58.715Z,94899.00
2023-03-26T19:21:03.783Z,94897.00
2023-03-26T19:25:08.127Z,94885.00
2023-03-26T19:29:14.993Z,94883.00
2023-03-26T19:33:23.151Z,94881.00
2023-03-26T19:37:31.713Z,94875.00
2023-03-26T19:41:39.707Z,94885.00
2023-03-26T19:45:59.847Z,94880.00
2023-03-26T19:50:23.391Z,94882.00
2023-03-26T19:54:26.668Z,94875.00
2023-03-26T19:58:32.873Z,94871.00
2023-03-26T20:02:37.807Z,94876.00
2023-03-26T20:06:44.202Z,94883.00
2023-03-26T20:10:59.346Z,94879.00
2023-03-26T20:15:19.369Z,94884.00
2023-03-26T20:19:32.703Z,94888.00
2023-03-26T20:23:44.823Z,94890.00
2023-03-26T20:27:53.112Z,94890.00
2023-03-26T20:32:01.538Z,94897.00
2023-03-26T20:36:10.193Z,94910.00
2023-03-26T20:40:14.226Z,94911.00
2023-03-26T20:44:19.243Z,94912.00
2023-03-26T20:48:24.607Z,94915.00
2023-03-26T20:52:33.496Z,94915.00
2023-03-26T20:56:41.729Z,94914.00
2023-03-26T21:00:48.312Z,94910.00
2023-03-26T21:04:58.793Z,94915.00
2023-03-26T21:09:04.133Z,94916.00
2023-03-26T21:13:11.801Z,94909.00
2023-03-26T21:17:18.777Z,94897.00
2023-03-26T21:21:41.264Z,94908.00
2023-03-26T21:25:56.443Z,94906.00
2023-03-26T21:30:00.097Z,94913.00
2023-03-26T21:34:09.273Z,94909.00
2023-03-26T21:38:20.154Z,94901.00
2023-03-26T21:42:27.120Z,94906.00
2023-03-26T21:46:34.668Z,94912.00
2023-03-26T21:50:44.444Z,94910.00
2023-03-26T21:54:47.970Z,94921.00
2023-03-26T21:59:01.603Z,94934.00
2023-03-26T22:03:13.246Z,94927.00
2023-03-26T22:07:22.506Z,94926.00
2023-03-26T22:11:26.146Z,94927.00
2023-03-26T22:15:34.146Z,94929.00
2023-03-26T22:19:37.245Z,94929.00
2023-03-26T22:23:40.258Z,94930.00
2023-03-26T22:27:46.692Z,94931.00
2023-03-26T22:31:53.422Z,94928.00
2023-03-26T22:36:00.154Z,94926.00
2023-03-26T22:40:05.525Z,94920.00
2023-03-26T22:44:19.902Z,94922.00
2023-03-26T22:48:30.276Z,94925.00
2023-03-26T22:52:36.611Z,94929.00
2023-03-26T22:56:42.029Z,94925.00
2023-03-26T23:00:52.415Z,94930.00
2023-03-26T23:05:00.516Z,94921.00
2023-03-26T23:09:07.228Z,94933.00
2023-03-26T23:13:10.267Z,94922.00
2023-03-26T23:17:14.745Z,94930.00
2023-03-26T23:21:23.143Z,94927.00
2023-03-26T23:25:28.601Z,94927.00
2023-03-26T23:29:34.444Z,94936.00
2023-03-26T23:33:39.525Z,94936.00
2023-03-26T23:37:43.991Z,94936.00
2023-03-26T23:41:50.078Z,94935.00
2023-03-26T23:45:57.094Z,94933.00
2023-03-26T23:50:02.365Z,94942.00
2023-03-26T23:54:08.708Z,94938.00
2023-03-26T23:58:11.864Z,94939.00
